sensor_id;sensor_type;location;lat;lon;timestamp;P1;durP1;ratioP1;P2;durP2;ratioP2
56075;SDS011;41951;49.022;12.066;2023-04-15T00:01:20;8.65;;;5.78;;
56075;SDS011;41951;49.022;12.066;2023-04-15T00:03:46;7.85;;;4.95;;
56075;SDS011;41951;49.022;12.066;2023-04-15T00:06:12;8.75;;;5.90;;
56075;SDS011;41951;49.022;12.066;2023-04-15T00:08:38;7.88;;;5.90;;
56075;SDS011;41951;49.022;12.066;2023-04-15T00:11:03;7.93;;;5.85;;
56075;SDS011;41951;49.022;12.066;2023-04-15T00:13:30;7.47;;;5.32;;
56075;SDS011;41951;49.022;12.066;2023-04-15T00:15:56;8.68;;;5.43;;
56075;SDS011;41951;49.022;12.066;2023-04-15T00:18:22;8.60;;;5.72;;
56075;SDS011;41951;49.022;12.066;2023-04-15T00:20:48;7.25;;;5.55;;
56075;SDS011;41951;49.022;12.066;2023-04-15T00:23:14;7.55;;;5.57;;
56075;SDS011;41951;49.022;12.066;2023-04-15T00:25:39;8.25;;;5.82;;
56075;SDS011;41951;49.022;12.066;2023-04-15T00:28:05;7.32;;;5.25;;
56075;SDS011;41951;49.022;12.066;2023-04-15T00:30:31;6.82;;;4.95;;
56075;SDS011;41951;49.022;12.066;2023-04-15T00:32:57;8.38;;;5.05;;
56075;SDS011;41951;49.022;12.066;2023-04-15T00:35:23;6.85;;;4.90;;
56075;SDS011;41951;49.022;12.066;2023-04-15T00:37:48;7.32;;;5.32;;
56075;SDS011;41951;49.022;12.066;2023-04-15T00:40:14;6.47;;;4.47;;
56075;SDS011;41951;49.022;12.066;2023-04-15T00:42:42;6.50;;;4.40;;
56075;SDS011;41951;49.022;12.066;2023-04-15T00:45:08;7.68;;;5.30;;
56075;SDS011;41951;49.022;12.066;2023-04-15T00:47:35;6.85;;;4.85;;
56075;SDS011;41951;49.022;12.066;2023-04-15T00:50:03;6.20;;;4.28;;
56075;SDS011;41951;49.022;12.066;2023-04-15T00:52:29;8.32;;;4.72;;
56075;SDS011;41951;49.022;12.066;2023-04-15T00:54:54;7.13;;;4.68;;
56075;SDS011;41951;49.022;12.066;2023-04-15T00:57:20;5.75;;;4.15;;
56075;SDS011;41951;49.022;12.066;2023-04-15T00:59:46;9.00;;;4.60;;
56075;SDS011;41951;49.022;12.066;2023-04-15T01:02:12;6.68;;;4.13;;
56075;SDS011;41951;49.022;12.066;2023-04-15T01:04:38;7.88;;;4.03;;
56075;SDS011;41951;49.022;12.066;2023-04-15T01:07:04;7.53;;;4.40;;
56075;SDS011;41951;49.022;12.066;2023-04-15T01:09:29;6.50;;;4.43;;
56075;SDS011;41951;49.022;12.066;2023-04-15T01:11:55;5.75;;;4.38;;
56075;SDS011;41951;49.022;12.066;2023-04-15T01:14:21;6.95;;;4.43;;
56075;SDS011;41951;49.022;12.066;2023-04-15T01:16:46;6.68;;;4.78;;
56075;SDS011;41951;49.022;12.066;2023-04-15T01:19:12;6.50;;;4.38;;
56075;SDS011;41951;49.022;12.066;2023-04-15T01:21:40;6.53;;;4.65;;
56075;SDS011;41951;49.022;12.066;2023-04-15T01:24:07;7.47;;;5.07;;
56075;SDS011;41951;49.022;12.066;2023-04-15T01:26:35;6.45;;;4.78;;
56075;SDS011;41951;49.022;12.066;2023-04-15T01:29:02;8.23;;;4.97;;
56075;SDS011;41951;49.022;12.066;2023-04-15T01:31:28;7.13;;;4.88;;
56075;SDS011;41951;49.022;12.066;2023-04-15T01:33:53;7.30;;;5.18;;
56075;SDS011;41951;49.022;12.066;2023-04-15T01:36:19;8.48;;;4.85;;
56075;SDS011;41951;49.022;12.066;2023-04-15T01:38:44;6.95;;;5.28;;
56075;SDS011;41951;49.022;12.066;2023-04-15T01:41:11;7.57;;;5.47;;
56075;SDS011;41951;49.022;12.066;2023-04-15T01:43:37;6.90;;;4.95;;
56075;SDS011;41951;49.022;12.066;2023-04-15T01:46:03;6.90;;;4.97;;
56075;SDS011;41951;49.022;12.066;2023-04-15T01:48:30;7.50;;;4.97;;
56075;SDS011;41951;49.022;12.066;2023-04-15T01:50:57;6.90;;;4.93;;
56075;SDS011;41951;49.022;12.066;2023-04-15T01:53:23;6.40;;;5.05;;
56075;SDS011;41951;49.022;12.066;2023-04-15T01:55:49;6.35;;;4.50;;
56075;SDS011;41951;49.022;12.066;2023-04-15T01:58:16;8.27;;;4.90;;
56075;SDS011;41951;49.022;12.066;2023-04-15T02:00:42;8.48;;;5.20;;
56075;SDS011;41951;49.022;12.066;2023-04-15T02:03:08;6.88;;;5.25;;
56075;SDS011;41951;49.022;12.066;2023-04-15T02:05:33;7.43;;;5.05;;
56075;SDS011;41951;49.022;12.066;2023-04-15T02:07:59;7.63;;;5.47;;
56075;SDS011;41951;49.022;12.066;2023-04-15T02:10:25;7.13;;;5.03;;
56075;SDS011;41951;49.022;12.066;2023-04-15T02:12:51;7.57;;;5.53;;
56075;SDS011;41951;49.022;12.066;2023-04-15T02:15:17;8.35;;;5.45;;
56075;SDS011;41951;49.022;12.066;2023-04-15T02:17:43;8.43;;;5.25;;
56075;SDS011;41951;49.022;12.066;2023-04-15T02:20:10;9.82;;;5.28;;
56075;SDS011;41951;49.022;12.066;2023-04-15T02:22:36;6.88;;;5.15;;
56075;SDS011;41951;49.022;12.066;2023-04-15T02:25:02;9.93;;;5.53;;
56075;SDS011;41951;49.022;12.066;2023-04-15T02:27:28;7.85;;;4.82;;
56075;SDS011;41951;49.022;12.066;2023-04-15T02:29:54;7.13;;;5.22;;
56075;SDS011;41951;49.022;12.066;2023-04-15T02:32:20;7.45;;;5.03;;
56075;SDS011;41951;49.022;12.066;2023-04-15T02:34:48;7.22;;;5.32;;
56075;SDS011;41951;49.022;12.066;2023-04-15T02:37:13;8.32;;;5.80;;
56075;SDS011;41951;49.022;12.066;2023-04-15T02:39:40;7.28;;;5.30;;
56075;SDS011;41951;49.022;12.066;2023-04-15T02:42:05;8.07;;;5.28;;
56075;SDS011;41951;49.022;12.066;2023-04-15T02:44:31;7.10;;;5.10;;
56075;SDS011;41951;49.022;12.066;2023-04-15T02:46:58;10.63;;;5.70;;
56075;SDS011;41951;49.022;12.066;2023-04-15T02:49:23;8.10;;;5.70;;
56075;SDS011;41951;49.022;12.066;2023-04-15T02:51:50;8.20;;;5.47;;
56075;SDS011;41951;49.022;12.066;2023-04-15T02:54:16;8.05;;;5.03;;
56075;SDS011;41951;49.022;12.066;2023-04-15T02:56:45;8.15;;;5.38;;
56075;SDS011;41951;49.022;12.066;2023-04-15T02:59:11;7.22;;;5.40;;
56075;SDS011;41951;49.022;12.066;2023-04-15T03:01:36;7.40;;;5.30;;
56075;SDS011;41951;49.022;12.066;2023-04-15T03:04:02;8.45;;;5.47;;
56075;SDS011;41951;49.022;12.066;2023-04-15T03:06:28;7.82;;;5.40;;
56075;SDS011;41951;49.022;12.066;2023-04-15T03:08:53;8.25;;;5.53;;
56075;SDS011;41951;49.022;12.066;2023-04-15T03:11:20;7.72;;;5.38;;
56075;SDS011;41951;49.022;12.066;2023-04-15T03:13:46;7.32;;;4.88;;
56075;SDS011;41951;49.022;12.066;2023-04-15T03:16:12;8.07;;;5.80;;
56075;SDS011;41951;49.022;12.066;2023-04-15T03:18:37;8.20;;;5.45;;
56075;SDS011;41951;49.022;12.066;2023-04-15T03:21:03;7.55;;;5.15;;
56075;SDS011;41951;49.022;12.066;2023-04-15T03:23:30;8.10;;;5.25;;
56075;SDS011;41951;49.022;12.066;2023-04-15T03:25:56;7.88;;;5.55;;
56075;SDS011;41951;49.022;12.066;2023-04-15T03:28:22;10.15;;;5.38;;
56075;SDS011;41951;49.022;12.066;2023-04-15T03:30:48;7.50;;;5.45;;
56075;SDS011;41951;49.022;12.066;2023-04-15T03:33:14;9.02;;;5.40;;
56075;SDS011;41951;49.022;12.066;2023-04-15T03:35:39;7.13;;;5.32;;
56075;SDS011;41951;49.022;12.066;2023-04-15T03:38:05;7.82;;;5.70;;
56075;SDS011;41951;49.022;12.066;2023-04-15T03:40:31;10.80;;;6.70;;
56075;SDS011;41951;49.022;12.066;2023-04-15T03:42:56;8.32;;;5.45;;
56075;SDS011;41951;49.022;12.066;2023-04-15T03:45:22;10.48;;;6.38;;
56075;SDS011;41951;49.022;12.066;2023-04-15T03:47:47;8.18;;;6.15;;
56075;SDS011;41951;49.022;12.066;2023-04-15T03:50:13;9.77;;;6.22;;
56075;SDS011;41951;49.022;12.066;2023-04-15T03:52:39;10.38;;;6.10;;
56075;SDS011;41951;49.022;12.066;2023-04-15T03:55:05;10.88;;;7.30;;
56075;SDS011;41951;49.022;12.066;2023-04-15T03:57:32;10.80;;;7.03;;
56075;SDS011;41951;49.022;12.066;2023-04-15T04:00:02;12.48;;;7.40;;
56075;SDS011;41951;49.022;12.066;2023-04-15T04:02:28;11.80;;;7.75;;
56075;SDS011;41951;49.022;12.066;2023-04-15T04:04:54;11.57;;;7.82;;
56075;SDS011;41951;49.022;12.066;2023-04-15T04:07:20;11.73;;;7.60;;
56075;SDS011;41951;49.022;12.066;2023-04-15T04:09:48;13.50;;;8.57;;
56075;SDS011;41951;49.022;12.066;2023-04-15T04:12:13;11.93;;;8.70;;
56075;SDS011;41951;49.022;12.066;2023-04-15T04:14:39;13.18;;;7.80;;
56075;SDS011;41951;49.022;12.066;2023-04-15T04:17:05;11.50;;;8.20;;
56075;SDS011;41951;49.022;12.066;2023-04-15T04:19:30;10.00;;;7.93;;
56075;SDS011;41951;49.022;12.066;2023-04-15T04:21:56;11.65;;;7.60;;
56075;SDS011;41951;49.022;12.066;2023-04-15T04:24:22;11.40;;;7.28;;
56075;SDS011;41951;49.022;12.066;2023-04-15T04:26:47;10.02;;;7.10;;
56075;SDS011;41951;49.022;12.066;2023-04-15T04:29:13;11.13;;;7.80;;
56075;SDS011;41951;49.022;12.066;2023-04-15T04:31:38;9.82;;;7.35;;
56075;SDS011;41951;49.022;12.066;2023-04-15T04:34:04;12.60;;;7.70;;
56075;SDS011;41951;49.022;12.066;2023-04-15T04:36:30;12.52;;;8.02;;
56075;SDS011;41951;49.022;12.066;2023-04-15T04:38:55;13.55;;;7.20;;
56075;SDS011;41951;49.022;12.066;2023-04-15T04:41:21;12.13;;;7.60;;
56075;SDS011;41951;49.022;12.066;2023-04-15T04:43:46;11.07;;;7.45;;
56075;SDS011;41951;49.022;12.066;2023-04-15T04:46:12;11.10;;;7.82;;
56075;SDS011;41951;49.022;12.066;2023-04-15T04:48:38;12.98;;;8.13;;
56075;SDS011;41951;49.022;12.066;2023-04-15T04:51:04;10.60;;;7.93;;
56075;SDS011;41951;49.022;12.066;2023-04-15T04:53:30;11.30;;;6.88;;
56075;SDS011;41951;49.022;12.066;2023-04-15T04:55:55;13.10;;;8.30;;
56075;SDS011;41951;49.022;12.066;2023-04-15T04:58:21;13.32;;;8.02;;
56075;SDS011;41951;49.022;12.066;2023-04-15T05:00:47;10.60;;;7.20;;
56075;SDS011;41951;49.022;12.066;2023-04-15T05:03:13;11.38;;;7.55;;
56075;SDS011;41951;49.022;12.066;2023-04-15T05:05:38;11.57;;;7.63;;
56075;SDS011;41951;49.022;12.066;2023-04-15T05:08:05;12.15;;;7.68;;
56075;SDS011;41951;49.022;12.066;2023-04-15T05:10:31;12.38;;;7.80;;
56075;SDS011;41951;49.022;12.066;2023-04-15T05:12:57;12.25;;;7.43;;
56075;SDS011;41951;49.022;12.066;2023-04-15T05:15:22;15.77;;;8.63;;
56075;SDS011;41951;49.022;12.066;2023-04-15T05:17:48;10.02;;;7.20;;
56075;SDS011;41951;49.022;12.066;2023-04-15T05:20:14;11.15;;;7.60;;
56075;SDS011;41951;49.022;12.066;2023-04-15T05:22:39;9.27;;;6.72;;
56075;SDS011;41951;49.022;12.066;2023-04-15T05:25:05;12.68;;;7.95;;
56075;SDS011;41951;49.022;12.066;2023-04-15T05:27:31;12.60;;;8.18;;
56075;SDS011;41951;49.022;12.066;2023-04-15T05:29:57;11.48;;;7.32;;
56075;SDS011;41951;49.022;12.066;2023-04-15T05:32:22;11.13;;;7.22;;
56075;SDS011;41951;49.022;12.066;2023-04-15T05:34:48;11.40;;;6.13;;
56075;SDS011;41951;49.022;12.066;2023-04-15T05:37:13;9.55;;;6.53;;
56075;SDS011;41951;49.022;12.066;2023-04-15T05:39:39;7.20;;;4.63;;
56075;SDS011;41951;49.022;12.066;2023-04-15T05:42:05;6.22;;;4.35;;
56075;SDS011;41951;49.022;12.066;2023-04-15T05:44:30;8.63;;;5.03;;
56075;SDS011;41951;49.022;12.066;2023-04-15T05:46:56;7.70;;;4.95;;
56075;SDS011;41951;49.022;12.066;2023-04-15T05:49:22;8.43;;;5.75;;
56075;SDS011;41951;49.022;12.066;2023-04-15T05:51:48;7.07;;;4.55;;
56075;SDS011;41951;49.022;12.066;2023-04-15T05:54:13;6.45;;;4.97;;
56075;SDS011;41951;49.022;12.066;2023-04-15T05:56:39;7.03;;;4.13;;
56075;SDS011;41951;49.022;12.066;2023-04-15T05:59:05;7.03;;;4.47;;
56075;SDS011;41951;49.022;12.066;2023-04-15T06:01:32;7.10;;;4.40;;
56075;SDS011;41951;49.022;12.066;2023-04-15T06:03:58;7.68;;;4.55;;
56075;SDS011;41951;49.022;12.066;2023-04-15T06:06:24;7.22;;;4.10;;
56075;SDS011;41951;49.022;12.066;2023-04-15T06:08:51;7.28;;;4.95;;
56075;SDS011;41951;49.022;12.066;2023-04-15T06:11:17;17.20;;;10.98;;
56075;SDS011;41951;49.022;12.066;2023-04-15T06:13:44;28.15;;;17.95;;
56075;SDS011;41951;49.022;12.066;2023-04-15T06:16:09;7.03;;;4.20;;
56075;SDS011;41951;49.022;12.066;2023-04-15T06:18:35;7.25;;;4.55;;
56075;SDS011;41951;49.022;12.066;2023-04-15T06:21:01;6.80;;;4.00;;
56075;SDS011;41951;49.022;12.066;2023-04-15T06:23:26;7.53;;;4.35;;
56075;SDS011;41951;49.022;12.066;2023-04-15T06:25:52;6.13;;;3.63;;
56075;SDS011;41951;49.022;12.066;2023-04-15T06:28:18;5.55;;;3.95;;
56075;SDS011;41951;49.022;12.066;2023-04-15T06:30:43;17.42;;;10.85;;
56075;SDS011;41951;49.022;12.066;2023-04-15T06:33:09;6.18;;;3.70;;
56075;SDS011;41951;49.022;12.066;2023-04-15T06:35:35;8.13;;;3.30;;
56075;SDS011;41951;49.022;12.066;2023-04-15T06:38:00;6.68;;;3.75;;
56075;SDS011;41951;49.022;12.066;2023-04-15T06:40:26;4.93;;;3.08;;
56075;SDS011;41951;49.022;12.066;2023-04-15T06:42:52;5.05;;;3.25;;
56075;SDS011;41951;49.022;12.066;2023-04-15T06:45:17;4.50;;;2.80;;
56075;SDS011;41951;49.022;12.066;2023-04-15T06:47:43;9.00;;;3.03;;
56075;SDS011;41951;49.022;12.066;2023-04-15T06:50:09;4.60;;;3.05;;
56075;SDS011;41951;49.022;12.066;2023-04-15T06:52:35;6.13;;;3.17;;
56075;SDS011;41951;49.022;12.066;2023-04-15T06:55:01;4.78;;;3.05;;
56075;SDS011;41951;49.022;12.066;2023-04-15T06:57:26;4.65;;;3.03;;
56075;SDS011;41951;49.022;12.066;2023-04-15T06:59:52;5.45;;;3.28;;
56075;SDS011;41951;49.022;12.066;2023-04-15T07:02:19;4.65;;;2.95;;
56075;SDS011;41951;49.022;12.066;2023-04-15T07:04:44;4.70;;;3.10;;
56075;SDS011;41951;49.022;12.066;2023-04-15T07:07:10;5.28;;;3.15;;
56075;SDS011;41951;49.022;12.066;2023-04-15T07:09:36;4.25;;;2.72;;
56075;SDS011;41951;49.022;12.066;2023-04-15T07:12:02;4.78;;;2.67;;
56075;SDS011;41951;49.022;12.066;2023-04-15T07:14:28;7.22;;;4.13;;
56075;SDS011;41951;49.022;12.066;2023-04-15T07:16:54;6.68;;;3.63;;
56075;SDS011;41951;49.022;12.066;2023-04-15T07:19:20;6.80;;;3.20;;
56075;SDS011;41951;49.022;12.066;2023-04-15T07:21:46;9.20;;;5.32;;
56075;SDS011;41951;49.022;12.066;2023-04-15T07:24:11;4.85;;;2.85;;
56075;SDS011;41951;49.022;12.066;2023-04-15T07:26:40;5.32;;;2.90;;
56075;SDS011;41951;49.022;12.066;2023-04-15T07:29:06;4.53;;;2.78;;
56075;SDS011;41951;49.022;12.066;2023-04-15T07:31:32;4.07;;;2.78;;
56075;SDS011;41951;49.022;12.066;2023-04-15T07:33:57;4.93;;;2.95;;
56075;SDS011;41951;49.022;12.066;2023-04-15T07:36:23;4.55;;;2.70;;
56075;SDS011;41951;49.022;12.066;2023-04-15T07:38:49;5.43;;;3.70;;
56075;SDS011;41951;49.022;12.066;2023-04-15T07:41:14;4.35;;;3.00;;
56075;SDS011;41951;49.022;12.066;2023-04-15T07:43:40;4.97;;;3.10;;
56075;SDS011;41951;49.022;12.066;2023-04-15T07:46:06;3.72;;;2.60;;
56075;SDS011;41951;49.022;12.066;2023-04-15T07:48:32;5.47;;;2.92;;
56075;SDS011;41951;49.022;12.066;2023-04-15T07:50:58;5.10;;;2.97;;
56075;SDS011;41951;49.022;12.066;2023-04-15T07:53:24;6.15;;;3.03;;
56075;SDS011;41951;49.022;12.066;2023-04-15T07:55:50;5.47;;;3.40;;
56075;SDS011;41951;49.022;12.066;2023-04-15T07:58:16;5.78;;;3.30;;
56075;SDS011;41951;49.022;12.066;2023-04-15T08:00:41;4.85;;;2.97;;
56075;SDS011;41951;49.022;12.066;2023-04-15T08:03:07;6.20;;;3.30;;
56075;SDS011;41951;49.022;12.066;2023-04-15T08:05:32;4.97;;;3.35;;
56075;SDS011;41951;49.022;12.066;2023-04-15T08:07:58;4.97;;;3.35;;
56075;SDS011;41951;49.022;12.066;2023-04-15T08:10:24;4.50;;;3.15;;
56075;SDS011;41951;49.022;12.066;2023-04-15T08:12:49;5.10;;;3.00;;
56075;SDS011;41951;49.022;12.066;2023-04-15T08:15:18;5.75;;;3.13;;
56075;SDS011;41951;49.022;12.066;2023-04-15T08:17:44;5.05;;;2.95;;
56075;SDS011;41951;49.022;12.066;2023-04-15T08:20:10;4.50;;;2.83;;
56075;SDS011;41951;49.022;12.066;2023-04-15T08:22:37;4.35;;;2.97;;
56075;SDS011;41951;49.022;12.066;2023-04-15T08:25:03;3.88;;;2.60;;
56075;SDS011;41951;49.022;12.066;2023-04-15T08:27:28;5.30;;;2.88;;
56075;SDS011;41951;49.022;12.066;2023-04-15T08:29:54;3.92;;;2.53;;
56075;SDS011;41951;49.022;12.066;2023-04-15T08:32:20;4.07;;;2.22;;
56075;SDS011;41951;49.022;12.066;2023-04-15T08:34:46;3.40;;;2.10;;
56075;SDS011;41951;49.022;12.066;2023-04-15T08:37:12;5.63;;;2.70;;
56075;SDS011;41951;49.022;12.066;2023-04-15T08:39:38;5.75;;;2.97;;
56075;SDS011;41951;49.022;12.066;2023-04-15T08:42:03;5.00;;;2.50;;
56075;SDS011;41951;49.022;12.066;2023-04-15T08:44:35;4.30;;;2.30;;
56075;SDS011;41951;49.022;12.066;2023-04-15T08:47:02;3.45;;;2.13;;
56075;SDS011;41951;49.022;12.066;2023-04-15T08:49:31;3.50;;;2.20;;
56075;SDS011;41951;49.022;12.066;2023-04-15T08:51:58;4.65;;;2.40;;
56075;SDS011;41951;49.022;12.066;2023-04-15T08:54:24;3.05;;;2.00;;
56075;SDS011;41951;49.022;12.066;2023-04-15T08:56:51;3.78;;;2.17;;
56075;SDS011;41951;49.022;12.066;2023-04-15T08:59:18;4.15;;;1.98;;
56075;SDS011;41951;49.022;12.066;2023-04-15T09:01:45;4.50;;;2.10;;
56075;SDS011;41951;49.022;12.066;2023-04-15T09:04:12;2.75;;;1.85;;
56075;SDS011;41951;49.022;12.066;2023-04-15T09:06:38;2.97;;;1.85;;
56075;SDS011;41951;49.022;12.066;2023-04-15T09:09:05;3.72;;;1.88;;
56075;SDS011;41951;49.022;12.066;2023-04-15T09:11:30;2.90;;;2.00;;
56075;SDS011;41951;49.022;12.066;2023-04-15T09:13:56;3.25;;;1.60;;
56075;SDS011;41951;49.022;12.066;2023-04-15T09:16:21;3.00;;;1.95;;
56075;SDS011;41951;49.022;12.066;2023-04-15T09:18:47;3.17;;;2.00;;
56075;SDS011;41951;49.022;12.066;2023-04-15T09:21:14;3.30;;;1.95;;
56075;SDS011;41951;49.022;12.066;2023-04-15T09:23:57;3.85;;;1.50;;
56075;SDS011;41951;49.022;12.066;2023-04-15T09:26:33;3.25;;;1.70;;
56075;SDS011;41951;49.022;12.066;2023-04-15T09:29:07;2.30;;;1.30;;
56075;SDS011;41951;49.022;12.066;2023-04-15T09:31:35;3.95;;;2.10;;
56075;SDS011;41951;49.022;12.066;2023-04-15T09:34:01;2.50;;;1.58;;
56075;SDS011;41951;49.022;12.066;2023-04-15T09:36:27;2.85;;;1.50;;
56075;SDS011;41951;49.022;12.066;2023-04-15T09:38:55;4.68;;;1.70;;
56075;SDS011;41951;49.022;12.066;2023-04-15T09:41:21;2.45;;;1.45;;
56075;SDS011;41951;49.022;12.066;2023-04-15T09:43:47;1.67;;;1.10;;
56075;SDS011;41951;49.022;12.066;2023-04-15T09:46:13;2.00;;;1.30;;
56075;SDS011;41951;49.022;12.066;2023-04-15T09:48:38;2.47;;;1.48;;
56075;SDS011;41951;49.022;12.066;2023-04-15T09:51:04;2.95;;;1.20;;
56075;SDS011;41951;49.022;12.066;2023-04-15T09:53:31;2.08;;;1.20;;
56075;SDS011;41951;49.022;12.066;2023-04-15T09:55:58;2.22;;;1.50;;
56075;SDS011;41951;49.022;12.066;2023-04-15T09:58:31;2.17;;;1.27;;
56075;SDS011;41951;49.022;12.066;2023-04-15T10:00:59;2.38;;;1.38;;
56075;SDS011;41951;49.022;12.066;2023-04-15T10:03:33;2.40;;;1.42;;
56075;SDS011;41951;49.022;12.066;2023-04-15T10:06:00;3.63;;;1.45;;
56075;SDS011;41951;49.022;12.066;2023-04-15T10:08:28;2.22;;;1.50;;
56075;SDS011;41951;49.022;12.066;2023-04-15T10:10:55;1.95;;;1.02;;
56075;SDS011;41951;49.022;12.066;2023-04-15T10:13:24;3.20;;;1.80;;
56075;SDS011;41951;49.022;12.066;2023-04-15T10:16:05;3.22;;;1.50;;
56075;SDS011;41951;49.022;12.066;2023-04-15T10:18:37;2.28;;;1.50;;
56075;SDS011;41951;49.022;12.066;2023-04-15T10:21:07;2.70;;;1.70;;
56075;SDS011;41951;49.022;12.066;2023-04-15T10:23:33;4.20;;;1.75;;
56075;SDS011;41951;49.022;12.066;2023-04-15T10:25:59;4.78;;;1.55;;
56075;SDS011;41951;49.022;12.066;2023-04-15T10:28:25;2.83;;;1.40;;
56075;SDS011;41951;49.022;12.066;2023-04-15T10:30:52;2.20;;;1.50;;
56075;SDS011;41951;49.022;12.066;2023-04-15T10:33:19;2.75;;;1.60;;
56075;SDS011;41951;49.022;12.066;2023-04-15T10:35:47;4.53;;;1.52;;
56075;SDS011;41951;49.022;12.066;2023-04-15T10:38:31;2.58;;;1.40;;
56075;SDS011;41951;49.022;12.066;2023-04-15T10:46:23;3.10;;;1.58;;
56075;SDS011;41951;49.022;12.066;2023-04-15T10:49:14;2.00;;;1.30;;
56075;SDS011;41951;49.022;12.066;2023-04-15T10:51:52;1.65;;;1.10;;
56075;SDS011;41951;49.022;12.066;2023-04-15T10:56:51;8.93;;;4.43;;
56075;SDS011;41951;49.022;12.066;2023-04-15T10:59:31;5.05;;;2.30;;
56075;SDS011;41951;49.022;12.066;2023-04-15T11:02:00;2.05;;;1.20;;
56075;SDS011;41951;49.022;12.066;2023-04-15T11:07:31;1.50;;;1.00;;
56075;SDS011;41951;49.022;12.066;2023-04-15T11:10:00;2.33;;;1.13;;
56075;SDS011;41951;49.022;12.066;2023-04-15T11:12:33;4.43;;;1.40;;
56075;SDS011;41951;49.022;12.066;2023-04-15T11:15:23;2.25;;;1.08;;
56075;SDS011;41951;49.022;12.066;2023-04-15T11:17:55;2.95;;;1.10;;
56075;SDS011;41951;49.022;12.066;2023-04-15T11:20:22;5.50;;;2.58;;
56075;SDS011;41951;49.022;12.066;2023-04-15T11:22:49;20.08;;;10.98;;
56075;SDS011;41951;49.022;12.066;2023-04-15T11:25:25;2.53;;;1.45;;
56075;SDS011;41951;49.022;12.066;2023-04-15T11:27:55;1.80;;;1.10;;
56075;SDS011;41951;49.022;12.066;2023-04-15T11:30:22;1.25;;;0.90;;
56075;SDS011;41951;49.022;12.066;2023-04-15T11:33:00;1.75;;;1.00;;
56075;SDS011;41951;49.022;12.066;2023-04-15T11:35:26;1.30;;;0.90;;
56075;SDS011;41951;49.022;12.066;2023-04-15T11:37:52;1.48;;;1.00;;
56075;SDS011;41951;49.022;12.066;2023-04-15T11:40:22;1.05;;;0.85;;
56075;SDS011;41951;49.022;12.066;2023-04-15T11:45:30;1.88;;;0.90;;
56075;SDS011;41951;49.022;12.066;2023-04-15T11:48:04;1.73;;;0.95;;
56075;SDS011;41951;49.022;12.066;2023-04-15T11:50:33;1.58;;;1.00;;
56075;SDS011;41951;49.022;12.066;2023-04-15T11:53:00;1.65;;;0.80;;
56075;SDS011;41951;49.022;12.066;2023-04-15T11:55:28;1.48;;;0.80;;
56075;SDS011;41951;49.022;12.066;2023-04-15T12:00:47;0.77;;;0.70;;
56075;SDS011;41951;49.022;12.066;2023-04-15T12:11:20;2.25;;;0.90;;
56075;SDS011;41951;49.022;12.066;2023-04-15T12:13:55;0.80;;;0.80;;
56075;SDS011;41951;49.022;12.066;2023-04-15T12:16:23;1.08;;;0.80;;
56075;SDS011;41951;49.022;12.066;2023-04-15T12:18:55;1.25;;;1.00;;
56075;SDS011;41951;49.022;12.066;2023-04-15T12:21:24;1.58;;;0.98;;
56075;SDS011;41951;49.022;12.066;2023-04-15T12:23:51;1.00;;;0.90;;
56075;SDS011;41951;49.022;12.066;2023-04-15T12:29:05;4.32;;;0.98;;
56075;SDS011;41951;49.022;12.066;2023-04-15T12:31:32;2.15;;;1.00;;
56075;SDS011;41951;49.022;12.066;2023-04-15T12:34:02;1.95;;;0.90;;
56075;SDS011;41951;49.022;12.066;2023-04-15T12:36:31;1.33;;;0.90;;
56075;SDS011;41951;49.022;12.066;2023-04-15T12:39:00;1.50;;;1.08;;
56075;SDS011;41951;49.022;12.066;2023-04-15T12:41:27;1.73;;;0.90;;
56075;SDS011;41951;49.022;12.066;2023-04-15T12:43:53;1.25;;;0.85;;
56075;SDS011;41951;49.022;12.066;2023-04-15T12:46:19;1.98;;;1.10;;
56075;SDS011;41951;49.022;12.066;2023-04-15T12:48:45;1.45;;;1.08;;
56075;SDS011;41951;49.022;12.066;2023-04-15T12:51:11;3.38;;;1.27;;
56075;SDS011;41951;49.022;12.066;2023-04-15T12:53:37;1.80;;;1.10;;
56075;SDS011;41951;49.022;12.066;2023-04-15T12:56:03;2.05;;;1.10;;
56075;SDS011;41951;49.022;12.066;2023-04-15T12:58:29;1.55;;;1.00;;
56075;SDS011;41951;49.022;12.066;2023-04-15T13:00:54;2.13;;;1.05;;
56075;SDS011;41951;49.022;12.066;2023-04-15T13:03:21;2.05;;;1.13;;
56075;SDS011;41951;49.022;12.066;2023-04-15T13:05:47;3.05;;;1.48;;
56075;SDS011;41951;49.022;12.066;2023-04-15T13:08:12;2.63;;;1.20;;
56075;SDS011;41951;49.022;12.066;2023-04-15T13:10:38;2.67;;;1.20;;
56075;SDS011;41951;49.022;12.066;2023-04-15T13:13:04;2.65;;;1.30;;
56075;SDS011;41951;49.022;12.066;2023-04-15T13:15:30;1.73;;;1.00;;
56075;SDS011;41951;49.022;12.066;2023-04-15T13:17:55;2.10;;;1.00;;
56075;SDS011;41951;49.022;12.066;2023-04-15T13:20:21;2.00;;;1.10;;
56075;SDS011;41951;49.022;12.066;2023-04-15T13:22:46;1.92;;;1.15;;
56075;SDS011;41951;49.022;12.066;2023-04-15T13:25:12;1.67;;;1.13;;
56075;SDS011;41951;49.022;12.066;2023-04-15T13:27:38;2.00;;;1.20;;
56075;SDS011;41951;49.022;12.066;2023-04-15T13:30:04;4.68;;;2.53;;
56075;SDS011;41951;49.022;12.066;2023-04-15T13:32:30;2.00;;;1.20;;
56075;SDS011;41951;49.022;12.066;2023-04-15T13:34:55;1.52;;;1.00;;
56075;SDS011;41951;49.022;12.066;2023-04-15T13:37:25;1.58;;;1.13;;
56075;SDS011;41951;49.022;12.066;2023-04-15T13:39:52;1.65;;;0.95;;
56075;SDS011;41951;49.022;12.066;2023-04-15T13:42:18;2.15;;;1.30;;
56075;SDS011;41951;49.022;12.066;2023-04-15T13:44:44;1.70;;;1.00;;
56075;SDS011;41951;49.022;12.066;2023-04-15T13:47:10;1.60;;;1.15;;
56075;SDS011;41951;49.022;12.066;2023-04-15T13:49:35;1.92;;;1.23;;
56075;SDS011;41951;49.022;12.066;2023-04-15T13:52:01;2.42;;;1.40;;
56075;SDS011;41951;49.022;12.066;2023-04-15T13:54:26;2.35;;;1.17;;
56075;SDS011;41951;49.022;12.066;2023-04-15T13:56:53;2.78;;;1.52;;
56075;SDS011;41951;49.022;12.066;2023-04-15T13:59:21;2.30;;;1.40;;
56075;SDS011;41951;49.022;12.066;2023-04-15T14:01:46;2.05;;;1.48;;
56075;SDS011;41951;49.022;12.066;2023-04-15T14:04:12;2.08;;;1.40;;
56075;SDS011;41951;49.022;12.066;2023-04-15T14:06:37;4.57;;;1.45;;
56075;SDS011;41951;49.022;12.066;2023-04-15T14:09:03;2.50;;;1.48;;
56075;SDS011;41951;49.022;12.066;2023-04-15T14:11:29;3.25;;;1.40;;
56075;SDS011;41951;49.022;12.066;2023-04-15T14:13:54;3.05;;;1.70;;
56075;SDS011;41951;49.022;12.066;2023-04-15T14:16:20;3.53;;;1.67;;
56075;SDS011;41951;49.022;12.066;2023-04-15T14:18:45;2.05;;;1.38;;
56075;SDS011;41951;49.022;12.066;2023-04-15T14:21:11;3.03;;;1.50;;
56075;SDS011;41951;49.022;12.066;2023-04-15T14:23:36;2.00;;;1.23;;
56075;SDS011;41951;49.022;12.066;2023-04-15T14:26:02;3.10;;;1.30;;
56075;SDS011;41951;49.022;12.066;2023-04-15T14:28:28;2.05;;;1.23;;
56075;SDS011;41951;49.022;12.066;2023-04-15T14:30:53;2.90;;;1.60;;
56075;SDS011;41951;49.022;12.066;2023-04-15T14:33:19;6.80;;;4.80;;
56075;SDS011;41951;49.022;12.066;2023-04-15T14:35:45;12.70;;;9.05;;
56075;SDS011;41951;49.022;12.066;2023-04-15T14:38:10;3.13;;;1.85;;
56075;SDS011;41951;49.022;12.066;2023-04-15T14:40:36;3.85;;;1.85;;
56075;SDS011;41951;49.022;12.066;2023-04-15T14:43:01;4.10;;;1.70;;
56075;SDS011;41951;49.022;12.066;2023-04-15T14:45:27;2.42;;;1.55;;
56075;SDS011;41951;49.022;12.066;2023-04-15T14:47:54;2.97;;;1.90;;
56075;SDS011;41951;49.022;12.066;2023-04-15T14:50:20;4.18;;;2.03;;
56075;SDS011;41951;49.022;12.066;2023-04-15T14:52:46;2.25;;;1.50;;
56075;SDS011;41951;49.022;12.066;2023-04-15T14:55:12;3.22;;;1.92;;
56075;SDS011;41951;49.022;12.066;2023-04-15T14:57:38;3.00;;;2.05;;